sensor_id;sensor_type;location;lat;lon;timestamp;pressure;altitude;pressure_sealevel;temperature;humidity
23733;BME280;12047;53.450;-2.286;2023-04-01T00:01:14;99783.47;;;14.16;100.00
23733;BME280;12047;53.450;-2.286;2023-04-01T00:06:17;99788.25;;;14.06;100.00
23733;BME280;12047;53.450;-2.286;2023-04-01T00:11:18;99785.13;;;14.32;100.00
23733;BME280;12047;53.450;-2.286;2023-04-01T00:16:19;99783.28;;;14.33;100.00
23733;BME280;12047;53.450;-2.286;2023-04-01T00:21:20;99796.97;;;14.29;100.00
23733;BME280;12047;53.450;-2.286;2023-04-01T00:26:21;99804.25;;;13.69;100.00
23733;BME280;12047;53.450;-2.286;2023-04-01T00:31:22;99789.69;;;14.38;100.00
23733;BME280;12047;53.450;-2.286;2023-04-01T00:36:23;99797.09;;;14.51;100.00
23733;BME280;12047;53.450;-2.286;2023-04-01T00:41:23;99811.59;;;14.48;100.00
23733;BME280;12047;53.450;-2.286;2023-04-01T00:46:24;99816.28;;;14.32;100.00
23733;BME280;12047;53.450;-2.286;2023-04-01T00:51:27;99810.81;;;13.95;100.00
23733;BME280;12047;53.450;-2.286;2023-04-01T00:56:35;99821.66;;;13.94;100.00
23733;BME280;12047;53.450;-2.286;2023-04-01T01:01:37;99814.38;;;13.88;100.00
23733;BME280;12047;53.450;-2.286;2023-04-01T01:11:51;99823.13;;;14.11;100.00
23733;BME280;12047;53.450;-2.286;2023-04-01T01:17:02;99831.94;;;14.12;100.00
23733;BME280;12047;53.450;-2.286;2023-04-01T01:27:29;99835.38;;;14.20;100.00
23733;BME280;12047;53.450;-2.286;2023-04-01T01:38:05;99839.16;;;13.74;100.00
23733;BME280;12047;53.450;-2.286;2023-04-01T01:43:11;99845.06;;;13.61;100.00
23733;BME280;12047;53.450;-2.286;2023-04-01T01:48:17;99850.25;;;13.01;100.00
23733;BME280;12047;53.450;-2.286;2023-04-01T01:53:20;99863.69;;;13.38;100.00
23733;BME280;12047;53.450;-2.286;2023-04-01T01:58:35;99872.31;;;13.63;100.00
23733;BME280;12047;53.450;-2.286;2023-04-01T02:03:42;99871.44;;;13.48;100.00
23733;BME280;12047;53.450;-2.286;2023-04-01T02:09:00;99884.34;;;13.82;100.00
23733;BME280;12047;53.450;-2.286;2023-04-01T02:19:10;99905.00;;;13.80;100.00
23733;BME280;12047;53.450;-2.286;2023-04-01T02:24:13;99905.88;;;13.18;100.00
23733;BME280;12047;53.450;-2.286;2023-04-01T02:29:17;99909.28;;;13.35;100.00
23733;BME280;12047;53.450;-2.286;2023-04-01T02:34:20;99909.41;;;13.65;100.00
23733;BME280;12047;53.450;-2.286;2023-04-01T02:39:21;99925.50;;;13.94;100.00
23733;BME280;12047;53.450;-2.286;2023-04-01T02:44:22;99927.78;;;13.59;100.00
23733;BME280;12047;53.450;-2.286;2023-04-01T02:49:23;99920.38;;;13.70;100.00
23733;BME280;12047;53.450;-2.286;2023-04-01T02:54:23;99920.66;;;13.52;100.00
23733;BME280;12047;53.450;-2.286;2023-04-01T02:59:24;99934.03;;;13.05;100.00
23733;BME280;12047;53.450;-2.286;2023-04-01T03:04:25;99939.59;;;13.26;100.00
23733;BME280;12047;53.450;-2.286;2023-04-01T03:09:25;99947.72;;;12.85;100.00
23733;BME280;12047;53.450;-2.286;2023-04-01T03:14:26;99947.78;;;13.47;100.00
23733;BME280;12047;53.450;-2.286;2023-04-01T03:19:26;99963.59;;;13.10;100.00
23733;BME280;12047;53.450;-2.286;2023-04-01T03:24:27;99964.63;;;12.92;100.00
23733;BME280;12047;53.450;-2.286;2023-04-01T03:29:27;99967.16;;;12.86;100.00
23733;BME280;12047;53.450;-2.286;2023-04-01T03:34:28;99970.38;;;12.41;100.00
23733;BME280;12047;53.450;-2.286;2023-04-01T03:39:28;99967.91;;;13.11;100.00
23733;BME280;12047;53.450;-2.286;2023-04-01T03:44:33;99976.66;;;12.80;100.00
23733;BME280;12047;53.450;-2.286;2023-04-01T03:49:34;99981.28;;;12.78;100.00
23733;BME280;12047;53.450;-2.286;2023-04-01T03:54:35;99998.09;;;13.65;100.00
23733;BME280;12047;53.450;-2.286;2023-04-01T03:59:35;100002.56;;;12.86;100.00
23733;BME280;12047;53.450;-2.286;2023-04-01T04:04:36;100015.19;;;12.84;100.00
23733;BME280;12047;53.450;-2.286;2023-04-01T04:09:36;100011.25;;;12.56;100.00
23733;BME280;12047;53.450;-2.286;2023-04-01T04:14:37;100010.56;;;12.13;100.00
23733;BME280;12047;53.450;-2.286;2023-04-01T04:19:37;100016.72;;;12.38;100.00
23733;BME280;12047;53.450;-2.286;2023-04-01T04:24:38;100015.69;;;11.90;100.00
23733;BME280;12047;53.450;-2.286;2023-04-01T04:29:39;100016.91;;;12.37;100.00
23733;BME280;12047;53.450;-2.286;2023-04-01T04:34:39;100027.66;;;12.43;100.00
23733;BME280;12047;53.450;-2.286;2023-04-01T04:39:40;100038.72;;;13.20;100.00
23733;BME280;12047;53.450;-2.286;2023-04-01T04:44:40;100029.31;;;11.87;100.00
23733;BME280;12047;53.450;-2.286;2023-04-01T04:49:41;100051.41;;;12.45;100.00
23733;BME280;12047;53.450;-2.286;2023-04-01T04:54:41;100055.38;;;12.16;100.00
23733;BME280;12047;53.450;-2.286;2023-04-01T04:59:42;100057.41;;;12.79;100.00
23733;BME280;12047;53.450;-2.286;2023-04-01T05:04:43;100072.97;;;12.99;100.00
23733;BME280;12047;53.450;-2.286;2023-04-01T05:09:43;100078.66;;;12.63;100.00
23733;BME280;12047;53.450;-2.286;2023-04-01T05:14:45;100092.41;;;12.18;100.00
23733;BME280;12047;53.450;-2.286;2023-04-01T05:19:46;100101.91;;;12.53;100.00
23733;BME280;12047;53.450;-2.286;2023-04-01T05:24:46;100109.69;;;12.38;100.00
23733;BME280;12047;53.450;-2.286;2023-04-01T05:29:47;100114.19;;;12.30;100.00
23733;BME280;12047;53.450;-2.286;2023-04-01T05:34:53;100111.72;;;12.85;100.00
23733;BME280;12047;53.450;-2.286;2023-04-01T05:39:53;100123.47;;;12.25;100.00
23733;BME280;12047;53.450;-2.286;2023-04-01T05:44:54;100127.63;;;12.44;100.00
23733;BME280;12047;53.450;-2.286;2023-04-01T05:49:55;100144.16;;;12.14;100.00
23733;BME280;12047;53.450;-2.286;2023-04-01T05:54:56;100140.41;;;12.33;100.00
23733;BME280;12047;53.450;-2.286;2023-04-01T05:59:56;100141.81;;;12.85;100.00
23733;BME280;12047;53.450;-2.286;2023-04-01T06:05:17;100154.59;;;12.74;100.00
23733;BME280;12047;53.450;-2.286;2023-04-01T06:10:20;100158.38;;;13.44;100.00
23733;BME280;12047;53.450;-2.286;2023-04-01T06:41:53;100202.28;;;13.40;100.00
23733;BME280;12047;53.450;-2.286;2023-04-01T06:47:02;100208.78;;;13.38;100.00
23733;BME280;12047;53.450;-2.286;2023-04-01T06:52:31;100215.09;;;13.45;100.00
23733;BME280;12047;53.450;-2.286;2023-04-01T06:57:46;100229.56;;;13.58;100.00
23733;BME280;12047;53.450;-2.286;2023-04-01T07:03:26;100230.41;;;13.43;100.00
23733;BME280;12047;53.450;-2.286;2023-04-01T07:08:34;100242.22;;;13.56;100.00
23733;BME280;12047;53.450;-2.286;2023-04-01T07:13:48;100245.56;;;13.34;100.00
23733;BME280;12047;53.450;-2.286;2023-04-01T07:18:56;100251.13;;;12.90;100.00
23733;BME280;12047;53.450;-2.286;2023-04-01T07:24:05;100256.69;;;13.21;100.00
23733;BME280;12047;53.450;-2.286;2023-04-01T07:29:12;100270.22;;;14.08;100.00
23733;BME280;12047;53.450;-2.286;2023-04-01T08:01:12;100302.78;;;15.50;100.00
23733;BME280;12047;53.450;-2.286;2023-04-01T08:17:02;100329.34;;;15.20;100.00
23733;BME280;12047;53.450;-2.286;2023-04-01T08:22:09;100350.44;;;14.76;100.00
23733;BME280;12047;53.450;-2.286;2023-04-01T08:27:26;100346.09;;;14.20;100.00
23733;BME280;12047;53.450;-2.286;2023-04-01T08:32:35;100351.03;;;14.55;100.00
23733;BME280;12047;53.450;-2.286;2023-04-01T08:37:38;100370.31;;;13.78;100.00
23733;BME280;12047;53.450;-2.286;2023-04-01T08:48:12;100368.53;;;16.11;97.51
23733;BME280;12047;53.450;-2.286;2023-04-01T08:53:51;100382.22;;;15.25;98.26
23733;BME280;12047;53.450;-2.286;2023-04-01T08:59:55;100377.84;;;16.15;95.90
23733;BME280;12047;53.450;-2.286;2023-04-01T09:05:37;100382.75;;;16.41;91.97
23733;BME280;12047;53.450;-2.286;2023-04-01T09:21:11;100405.50;;;16.08;92.14
23733;BME280;12047;53.450;-2.286;2023-04-01T09:37:08;100413.94;;;16.49;89.44
23733;BME280;12047;53.450;-2.286;2023-04-01T09:42:32;100421.31;;;15.41;92.83
23733;BME280;12047;53.450;-2.286;2023-04-01T10:09:31;100469.63;;;15.54;90.03
23733;BME280;12047;53.450;-2.286;2023-04-01T10:31:27;100494.78;;;16.13;86.84
23733;BME280;12047;53.450;-2.286;2023-04-01T10:36:52;100511.75;;;16.06;88.89
23733;BME280;12047;53.450;-2.286;2023-04-01T11:24:39;100562.34;;;16.30;84.52
23733;BME280;12047;53.450;-2.286;2023-04-01T11:29:56;100573.78;;;16.39;86.38
23733;BME280;12047;53.450;-2.286;2023-04-01T11:40:34;100590.06;;;15.75;88.49
23733;BME280;12047;53.450;-2.286;2023-04-01T11:45:51;100592.47;;;15.93;88.13
23733;BME280;12047;53.450;-2.286;2023-04-01T12:07:11;100636.47;;;16.13;84.97
23733;BME280;12047;53.450;-2.286;2023-04-01T12:33:58;100681.06;;;15.74;87.35
23733;BME280;12047;53.450;-2.286;2023-04-01T12:50:09;100696.50;;;16.33;84.98
23733;BME280;12047;53.450;-2.286;2023-04-01T13:06:29;100705.47;;;15.54;87.37
23733;BME280;12047;53.450;-2.286;2023-04-01T13:11:54;100722.47;;;16.25;84.34
23733;BME280;12047;53.450;-2.286;2023-04-01T13:22:29;100737.88;;;16.46;85.52
23733;BME280;12047;53.450;-2.286;2023-04-01T13:27:50;100739.88;;;15.49;88.39
23733;BME280;12047;53.450;-2.286;2023-04-01T13:33:07;100745.03;;;15.75;87.99
23733;BME280;12047;53.450;-2.286;2023-04-01T13:49:16;100776.59;;;15.07;89.70
23733;BME280;12047;53.450;-2.286;2023-04-01T14:04:57;100797.44;;;15.27;89.03
23733;BME280;12047;53.450;-2.286;2023-04-01T14:16:13;100818.94;;;15.10;87.63
23733;BME280;12047;53.450;-2.286;2023-04-01T14:42:36;100861.16;;;15.22;91.85
23733;BME280;12047;53.450;-2.286;2023-04-01T14:47:54;100870.38;;;15.52;92.44
23733;BME280;12047;53.450;-2.286;2023-04-01T14:58:57;100880.41;;;15.50;92.48
23733;BME280;12047;53.450;-2.286;2023-04-01T15:15:16;100912.44;;;16.31;93.56
23733;BME280;12047;53.450;-2.286;2023-04-01T15:31:12;100940.44;;;15.30;100.00
23733;BME280;12047;53.450;-2.286;2023-04-01T15:36:28;100964.69;;;14.69;100.00
23733;BME280;12047;53.450;-2.286;2023-04-01T15:47:33;100989.38;;;14.45;100.00
23733;BME280;12047;53.450;-2.286;2023-04-01T16:09:29;101032.84;;;14.63;100.00
23733;BME280;12047;53.450;-2.286;2023-04-01T16:20:22;101053.16;;;14.82;100.00
23733;BME280;12047;53.450;-2.286;2023-04-01T16:25:45;101061.63;;;15.03;100.00
23733;BME280;12047;53.450;-2.286;2023-04-01T16:41:32;101080.84;;;15.15;100.00
23733;BME280;12047;53.450;-2.286;2023-04-01T16:46:50;101082.59;;;14.98;100.00
23733;BME280;12047;53.450;-2.286;2023-04-01T17:13:47;101141.97;;;14.56;100.00
23733;BME280;12047;53.450;-2.286;2023-04-01T17:19:05;101161.53;;;14.65;100.00
23733;BME280;12047;53.450;-2.286;2023-04-01T17:30:17;101167.63;;;14.75;100.00
23733;BME280;12047;53.450;-2.286;2023-04-01T17:35:33;101178.69;;;14.80;100.00
23733;BME280;12047;53.450;-2.286;2023-04-01T17:40:46;101191.25;;;15.06;100.00
23733;BME280;12047;53.450;-2.286;2023-04-01T17:46:05;101199.94;;;15.59;100.00
23733;BME280;12047;53.450;-2.286;2023-04-01T17:51:24;101207.66;;;15.19;100.00
23733;BME280;12047;53.450;-2.286;2023-04-01T18:19:00;101273.44;;;14.84;100.00
23733;BME280;12047;53.450;-2.286;2023-04-01T18:24:27;101292.34;;;15.09;100.00
23733;BME280;12047;53.450;-2.286;2023-04-01T18:29:40;101301.91;;;14.66;100.00
23733;BME280;12047;53.450;-2.286;2023-04-01T18:35:02;101315.81;;;14.87;100.00
23733;BME280;12047;53.450;-2.286;2023-04-01T18:40:29;101329.53;;;14.47;100.00
23733;BME280;12047;53.450;-2.286;2023-04-01T18:45:36;101336.69;;;14.37;100.00
23733;BME280;12047;53.450;-2.286;2023-04-01T18:50:47;101341.81;;;14.21;100.00
23733;BME280;12047;53.450;-2.286;2023-04-01T18:55:55;101347.47;;;15.00;100.00
23733;BME280;12047;53.450;-2.286;2023-04-01T19:06:00;101372.94;;;14.30;100.00
23733;BME280;12047;53.450;-2.286;2023-04-01T19:11:30;101377.59;;;14.28;100.00
23733;BME280;12047;53.450;-2.286;2023-04-01T19:16:59;101380.78;;;14.96;100.00
23733;BME280;12047;53.450;-2.286;2023-04-01T19:22:22;101398.88;;;14.47;100.00
23733;BME280;12047;53.450;-2.286;2023-04-01T19:38:31;101429.78;;;14.21;100.00
23733;BME280;12047;53.450;-2.286;2023-04-01T20:00:22;101470.22;;;15.73;100.00
23733;BME280;12047;53.450;-2.286;2023-04-01T20:10:56;101481.38;;;14.86;100.00
23733;BME280;12047;53.450;-2.286;2023-04-01T20:16:07;101495.28;;;15.44;100.00
23733;BME280;12047;53.450;-2.286;2023-04-01T20:26:20;101508.41;;;14.73;100.00
23733;BME280;12047;53.450;-2.286;2023-04-01T20:31:34;101514.72;;;14.72;100.00
23733;BME280;12047;53.450;-2.286;2023-04-01T20:53:12;101557.19;;;14.93;100.00
23733;BME280;12047;53.450;-2.286;2023-04-01T21:04:00;101580.34;;;15.02;100.00
23733;BME280;12047;53.450;-2.286;2023-04-01T21:15:21;101586.16;;;14.88;100.00
23733;BME280;12047;53.450;-2.286;2023-04-01T21:41:56;101633.09;;;14.71;100.00
23733;BME280;12047;53.450;-2.286;2023-04-01T21:53:02;101638.75;;;15.15;100.00
23733;BME280;12047;53.450;-2.286;2023-04-01T22:04:30;101659.03;;;14.30;100.00
23733;BME280;12047;53.450;-2.286;2023-04-01T22:09:18;101662.16;;;14.74;100.00
23733;BME280;12047;53.450;-2.286;2023-04-01T22:14:33;101677.47;;;14.72;100.00
23733;BME280;12047;53.450;-2.286;2023-04-01T22:19:59;101680.00;;;14.74;100.00
23733;BME280;12047;53.450;-2.286;2023-04-01T22:25:15;101686.44;;;14.61;100.00
23733;BME280;12047;53.450;-2.286;2023-04-01T22:30:27;101698.34;;;14.28;100.00
23733;BME280;12047;53.450;-2.286;2023-04-01T22:35:40;101703.47;;;14.01;100.00
23733;BME280;12047;53.450;-2.286;2023-04-01T22:40:55;101707.94;;;14.01;100.00
23733;BME280;12047;53.450;-2.286;2023-04-01T22:46:36;101718.59;;;14.50;100.00
23733;BME280;12047;53.450;-2.286;2023-04-01T22:52:04;101729.78;;;14.35;100.00
23733;BME280;12047;53.450;-2.286;2023-04-01T22:57:14;101734.91;;;14.07;100.00
23733;BME280;12047;53.450;-2.286;2023-04-01T23:02:23;101745.28;;;14.79;100.00
23733;BME280;12047;53.450;-2.286;2023-04-01T23:12:48;101759.88;;;14.94;100.00
23733;BME280;12047;53.450;-2.286;2023-04-01T23:23:39;101771.81;;;14.71;100.00
23733;BME280;12047;53.450;-2.286;2023-04-01T23:33:42;101787.53;;;14.55;100.00
23733;BME280;12047;53.450;-2.286;2023-04-01T23:38:47;101791.41;;;14.41;100.00
23733;BME280;12047;53.450;-2.286;2023-04-01T23:43:55;101795.38;;;14.16;100.00
23733;BME280;12047;53.450;-2.286;2023-04-01T23:48:57;101805.19;;;14.06;100.00
23733;BME280;12047;53.450;-2.286;2023-04-01T23:54:13;101805.25;;;14.25;100.00
23733;BME280;12047;53.450;-2.286;2023-04-01T23:59:27;101822.19;;;14.55;100.00
